Time;durP1;ratioP1;P1;durP2;ratioP2;P2;SDS_P1;SDS_P2;PMS_P1;PMS_P2;Temp;Humidity;BMP_temperature;BMP_pressure;BME280_temperature;BME280_humidity;BME280_pressure;Samples;Min_cycle;Max_cycle;Signal;HPM_P1;HPM_P2
2022/12/22 03:27:22;;;;;;;29.40;23.25;;;11.50;96.90;;;;;;5049540;28;20043;-75
2022/12/22 03:29:48;;;;;;;32.20;23.83;;;11.50;96.80;;;;;;5042661;28;20021;-74
2022/12/22 03:32:13;;;;;;;32.25;23.80;;;11.60;96.80;;;;;;5047535;28;20040;-75
2022/12/22 03:34:39;;;;;;;29.60;22.92;;;11.60;96.70;;;;;;5046051;28;20151;-74
2022/12/22 03:37:04;;;;;;;31.27;23.13;;;11.60;96.70;;;;;;5039730;28;20068;-74
2022/12/22 03:39:30;;;;;;;31.73;22.88;;;11.60;96.60;;;;;;5046301;28;20464;-74
2022/12/22 03:47:24;;;;;;;30.35;22.15;;;11.60;96.60;;;;;;5044669;28;20047;-76
2022/12/22 03:49:49;;;;;;;27.48;22.23;;;11.70;96.60;;;;;;5047222;28;20024;-75
2022/12/22 03:52:15;;;;;;;26.35;21.75;;;11.70;96.60;;;;;;5048538;28;20612;-75
2022/12/22 03:54:41;;;;;;;29.60;23.40;;;11.70;96.60;;;;;;5044242;28;20017;-74
2022/12/22 03:57:07;;;;;;;31.67;24.10;;;11.70;96.60;;;;;;5047542;28;20559;-73
2022/12/22 03:59:32;;;;;;;33.65;25.75;;;11.60;96.60;;;;;;5047706;28;20036;-74
2022/12/22 04:01:58;;;;;;;33.60;25.10;;;11.60;96.70;;;;;;5047370;28;20097;-74
2022/12/22 04:04:25;;;;;;;31.98;25.17;;;11.60;96.60;;;;;;5048280;28;20056;-74
2022/12/22 04:06:51;;;;;;;32.65;23.77;;;11.60;96.60;;;;;;5041191;28;20024;-73
2022/12/22 04:09:17;;;;;;;31.67;23.88;;;11.60;96.60;;;;;;5030205;28;20559;-74
2022/12/22 04:14:27;;;;;;;31.73;23.83;;;11.60;96.70;;;;;;5035695;28;20041;-74
2022/12/22 04:16:52;;;;;;;35.55;24.85;;;11.60;96.60;;;;;;5044833;28;20052;-74
2022/12/22 04:19:18;;;;;;;30.95;23.83;;;11.60;96.60;;;;;;5048447;28;20167;-74
2022/12/22 04:21:44;;;;;;;70.25;29.98;;;11.60;96.70;;;;;;5045838;28;20032;-74
2022/12/22 04:24:13;;;;;;;83.93;26.05;;;11.60;96.60;;;;;;5049293;28;20059;-75
2022/12/22 04:26:39;;;;;;;28.65;21.67;;;11.50;96.60;;;;;;5043305;28;20100;-75
2022/12/22 04:29:05;;;;;;;29.92;23.60;;;11.50;96.70;;;;;;5049022;28;20035;-74
2022/12/22 04:31:30;;;;;;;140.88;27.73;;;11.50;96.70;;;;;;5047356;28;20029;-74
2022/12/22 04:33:57;;;;;;;35.03;23.08;;;11.60;96.70;;;;;;5047675;28;20383;-75
2022/12/22 04:36:22;;;;;;;30.50;23.00;;;11.50;96.60;;;;;;5042581;28;20032;-75
2022/12/22 04:38:48;;;;;;;31.10;23.83;;;11.50;96.60;;;;;;5048760;28;20383;-73
2022/12/22 04:41:14;;;;;;;31.02;24.88;;;11.50;96.70;;;;;;5044739;28;20533;-73
2022/12/22 04:43:40;;;;;;;35.08;25.52;;;11.60;96.70;;;;;;5048081;28;20049;-74
2022/12/22 04:46:05;;;;;;;34.85;25.35;;;11.60;96.60;;;;;;5046527;28;20036;-74
2022/12/22 04:48:31;;;;;;;36.47;25.83;;;11.60;96.60;;;;;;5046852;28;20074;-74
2022/12/22 04:50:58;;;;;;;33.10;25.25;;;11.60;96.50;;;;;;5046175;28;20068;-74
2022/12/22 04:53:26;;;;;;;35.20;24.73;;;11.60;96.50;;;;;;5048452;28;20028;-73
2022/12/22 04:56:04;;;;;;;46.05;28.27;;;11.60;96.50;;;;;;5047228;28;20017;-74
2022/12/22 04:58:30;;;;;;;35.28;25.35;;;11.60;96.50;;;;;;5039246;28;20087;-73
2022/12/22 05:00:56;;;;;;;35.97;26.20;;;11.60;96.50;;;;;;5047635;28;20100;-74
2022/12/22 05:03:22;;;;;;;39.92;28.30;;;11.60;96.50;;;;;;5042813;28;20111;-73
2022/12/22 05:05:48;;;;;;;39.67;26.33;;;11.70;96.50;;;;;;5048124;28;20483;-74
2022/12/22 05:08:14;;;;;;;35.28;24.25;;;11.60;96.50;;;;;;5045151;28;20040;-73
2022/12/22 05:10:39;;;;;;;55.05;28.85;;;11.60;96.40;;;;;;5048122;28;20029;-75
2022/12/22 05:13:05;;;;;;;52.90;27.02;;;11.70;96.50;;;;;;5039981;28;20021;-74
2022/12/22 05:15:32;;;;;;;46.70;29.15;;;11.70;96.50;;;;;;5044197;28;20109;-74
2022/12/22 05:18:00;;;;;;;45.03;27.83;;;11.60;96.60;;;;;;5046650;28;20087;-74
2022/12/22 05:20:27;;;;;;;40.28;25.65;;;11.70;96.60;;;;;;5035753;28;20488;-74
2022/12/22 05:22:53;;;;;;;35.75;25.17;;;11.60;96.60;;;;;;5047453;28;20021;-74
2022/12/22 05:25:20;;;;;;;39.13;24.45;;;11.70;96.70;;;;;;5047635;28;20442;-74
2022/12/22 05:27:48;;;;;;;36.72;25.95;;;11.60;96.60;;;;;;5049077;28;20078;-75
2022/12/22 05:30:15;;;;;;;45.40;26.95;;;11.60;96.60;;;;;;5049317;28;20065;-73
2022/12/22 05:32:41;;;;;;;41.80;24.67;;;11.60;96.60;;;;;;5027506;28;20048;-73
2022/12/22 05:35:07;;;;;;;36.47;23.90;;;11.60;96.60;;;;;;5038068;28;20488;-73
2022/12/22 05:37:34;;;;;;;53.15;27.48;;;11.60;96.60;;;;;;5045979;28;20025;-73
2022/12/22 05:40:00;;;;;;;48.10;25.73;;;11.60;96.60;;;;;;5040338;28;20250;-73
2022/12/22 05:42:34;;;;;;;42.42;25.67;;;11.60;96.60;;;;;;5040750;28;20048;-74
2022/12/22 05:45:18;;;;;;;44.20;25.75;;;11.60;96.70;;;;;;5048067;28;20051;-73
2022/12/22 05:47:47;;;;;;;39.47;24.08;;;11.60;96.70;;;;;;5030107;28;20185;-75
2022/12/22 05:50:14;;;;;;;46.08;26.67;;;11.60;96.80;;;;;;5040348;28;20025;-73
2022/12/22 05:52:40;;;;;;;38.50;24.63;;;11.60;96.80;;;;;;5033167;28;20488;-74
2022/12/22 05:55:07;;;;;;;36.10;24.98;;;11.50;96.90;;;;;;5048664;28;20023;-75
2022/12/22 05:57:33;;;;;;;39.38;24.52;;;11.60;96.90;;;;;;5053066;28;20144;-74
2022/12/22 05:59:59;;;;;;;36.17;23.65;;;11.50;96.90;;;;;;5038670;28;20424;-74
2022/12/22 06:02:25;;;;;;;41.53;24.85;;;11.50;97.00;;;;;;5053947;28;20562;-74
2022/12/22 06:04:50;;;;;;;34.38;21.35;;;11.50;97.10;;;;;;5050893;28;20195;-74
2022/12/22 06:07:16;;;;;;;38.08;25.27;;;11.50;97.10;;;;;;5037321;28;20021;-73
2022/12/22 06:09:42;;;;;;;40.15;24.25;;;11.50;97.10;;;;;;5053697;28;20068;-74
2022/12/22 06:12:08;;;;;;;46.58;25.42;;;11.50;97.10;;;;;;5035881;28;20394;-73
2022/12/22 06:14:33;;;;;;;36.28;21.80;;;11.50;97.10;;;;;;5052590;28;20025;-74
2022/12/22 06:17:00;;;;;;;44.58;25.05;;;11.50;97.20;;;;;;5055074;28;20049;-74
2022/12/22 06:19:26;;;;;;;43.45;24.75;;;11.50;97.20;;;;;;5048863;28;20059;-73
2022/12/22 06:21:52;;;;;;;46.33;25.33;;;11.50;97.20;;;;;;5045013;28;20085;-75
2022/12/22 06:24:18;;;;;;;31.65;19.77;;;11.50;97.20;;;;;;5050988;28;20270;-74
2022/12/22 06:26:44;;;;;;;38.28;22.95;;;11.50;97.30;;;;;;5052812;28;20387;-74
2022/12/22 06:29:09;;;;;;;36.55;20.92;;;11.40;97.30;;;;;;5050112;28;20425;-75
2022/12/22 06:31:35;;;;;;;46.13;24.90;;;11.40;97.40;;;;;;5034095;28;20029;-74
2022/12/22 06:34:00;;;;;;;33.78;19.52;;;11.40;97.50;;;;;;5053737;28;20025;-74
2022/12/22 06:36:27;;;;;;;39.58;22.65;;;11.30;97.50;;;;;;5036872;28;20103;-74
2022/12/22 06:38:53;;;;;;;39.92;20.55;;;11.40;97.60;;;;;;5053925;28;20039;-74
2022/12/22 06:43:07;;;;;;;42.55;23.20;;;11.30;97.70;;;;;;5045100;28;20096;-75
2022/12/22 06:44:04;;;;;;;41.70;23.42;;;11.30;97.70;;;;;;5054335;28;20037;-73
2022/12/22 06:46:29;;;;;;;37.88;22.02;;;11.20;97.80;;;;;;5049585;28;20079;-74
2022/12/22 06:48:55;;;;;;;39.05;21.02;;;11.20;98.00;;;;;;5053483;28;20021;-75
2022/12/22 06:51:21;;;;;;;35.72;19.15;;;11.20;98.00;;;;;;5049147;28;20132;-75
2022/12/22 06:53:46;;;;;;;35.80;20.23;;;11.20;98.00;;;;;;5036966;28;20025;-74
2022/12/22 06:56:12;;;;;;;46.65;23.30;;;11.30;97.80;;;;;;5049518;28;20025;-73
2022/12/22 06:58:37;;;;;;;39.72;21.75;;;11.30;97.80;;;;;;5054397;28;20029;-74
2022/12/22 07:01:04;;;;;;;36.90;20.55;;;11.30;97.70;;;;;;5045986;28;20041;-74
2022/12/22 07:03:30;;;;;;;32.10;18.67;;;11.30;97.70;;;;;;5052121;28;20033;-74
2022/12/22 07:05:55;;;;;;;30.13;18.30;;;11.30;97.80;;;;;;5045726;28;20017;-75
2022/12/22 07:08:21;;;;;;;30.33;17.63;;;11.30;97.70;;;;;;5047166;28;20021;-74
2022/12/22 07:10:59;;;;;;;33.58;19.40;;;11.30;97.70;;;;;;5046715;28;20057;-74
2022/12/22 07:13:27;;;;;;;33.97;19.33;;;11.30;97.70;;;;;;5043368;28;20135;-75
2022/12/22 07:15:53;;;;;;;35.75;18.75;;;11.30;97.60;;;;;;5049651;28;20052;-74
2022/12/22 07:18:20;;;;;;;32.40;18.27;;;11.30;97.50;;;;;;5050690;28;20041;-74
2022/12/22 07:20:45;;;;;;;26.08;15.07;;;11.40;97.40;;;;;;5049573;28;21278;-74
2022/12/22 07:23:12;;;;;;;27.23;15.93;;;11.30;97.30;;;;;;5048364;28;20059;-75
2022/12/22 07:25:37;;;;;;;27.38;15.95;;;11.40;97.20;;;;;;5031635;28;20029;-74
2022/12/22 07:28:05;;;;;;;23.95;14.32;;;11.40;97.10;;;;;;5051700;28;20025;-74
2022/12/22 07:30:31;;;;;;;31.40;17.92;;;11.40;97.10;;;;;;5049970;28;20131;-75
2022/12/22 07:32:57;;;;;;;23.17;15.13;;;11.40;97.00;;;;;;5045566;28;20113;-74
2022/12/22 07:35:23;;;;;;;28.15;17.55;;;11.30;97.10;;;;;;5028308;28;20569;-74
2022/12/22 07:37:48;;;;;;;30.35;16.55;;;11.30;96.90;;;;;;5042783;28;20041;-75
2022/12/22 07:40:14;;;;;;;25.50;14.85;;;11.20;96.90;;;;;;5035381;28;20156;-75
2022/12/22 07:42:46;;;;;;;28.67;16.70;;;11.20;97.00;;;;;;5040791;28;20517;-74
2022/12/22 07:45:12;;;;;;;35.15;19.48;;;11.20;97.00;;;;;;5048183;28;20028;-74
2022/12/22 07:47:39;;;;;;;27.25;16.27;;;11.10;97.00;;;;;;5048886;28;20025;-74
2022/12/22 07:50:24;;;;;;;22.50;14.50;;;11.00;96.90;;;;;;5035590;28;20060;-74
2022/12/22 07:52:51;;;;;;;31.52;18.38;;;11.00;96.90;;;;;;5036709;28;20029;-75
2022/12/22 07:55:17;;;;;;;32.75;18.90;;;11.00;97.00;;;;;;5044927;28;20029;-74
2022/12/22 07:57:43;;;;;;;35.00;20.58;;;11.00;97.10;;;;;;5038291;28;20064;-73
2022/12/22 08:00:09;;;;;;;26.98;15.27;;;10.90;97.10;;;;;;5042637;28;20091;-74
2022/12/22 08:02:35;;;;;;;39.00;22.10;;;10.90;97.00;;;;;;5043221;28;20018;-74
2022/12/22 08:05:01;;;;;;;34.40;20.38;;;10.90;97.00;;;;;;5049877;28;20028;-72
2022/12/22 08:07:26;;;;;;;38.42;20.17;;;10.90;97.00;;;;;;5045626;28;20025;-74
2022/12/22 08:09:52;;;;;;;39.22;23.23;;;10.90;96.90;;;;;;5049066;28;20117;-73
2022/12/22 08:12:18;;;;;;;44.08;23.05;;;10.80;96.90;;;;;;5043374;28;20116;-73
2022/12/22 08:14:44;;;;;;;41.05;22.55;;;10.90;96.90;;;;;;5014901;28;20021;-72
2022/12/22 08:17:13;;;;;;;37.95;22.05;;;10.90;96.90;;;;;;5036524;28;20120;-73
2022/12/22 08:19:39;;;;;;;39.28;21.90;;;10.90;96.80;;;;;;5045061;28;20021;-73
2022/12/22 08:22:05;;;;;;;41.22;22.30;;;11.00;96.80;;;;;;5048545;28;20398;-72
2022/12/22 08:24:31;;;;;;;37.28;22.20;;;11.00;97.00;;;;;;5045583;28;20028;-72
2022/12/22 08:27:04;;;;;;;45.33;26.23;;;11.00;96.70;;;;;;5049369;28;20359;-70
2022/12/22 08:29:38;;;;;;;44.90;25.25;;;11.10;96.60;;;;;;5042633;28;20055;-73
2022/12/22 08:32:04;;;;;;;42.25;24.48;;;11.10;96.50;;;;;;5048858;28;20057;-74
2022/12/22 08:34:29;;;;;;;39.67;22.70;;;11.20;96.50;;;;;;5045256;28;20095;-73
2022/12/22 08:36:58;;;;;;;45.42;27.27;;;11.20;96.40;;;;;;5046609;28;20036;-73
2022/12/22 08:39:28;;;;;;;45.30;26.30;;;11.30;96.30;;;;;;5044814;28;20025;-73
2022/12/22 08:41:54;;;;;;;44.60;28.27;;;11.40;96.20;;;;;;5045509;28;20048;-72
2022/12/22 08:44:21;;;;;;;44.78;28.25;;;11.40;96.00;;;;;;5046809;28;20032;-74
2022/12/22 08:46:49;;;;;;;44.38;25.98;;;11.50;95.70;;;;;;5047062;28;20120;-74
2022/12/22 08:49:15;;;;;;;42.53;25.50;;;11.40;95.50;;;;;;5033579;28;20013;-74
2022/12/22 08:51:41;;;;;;;47.50;27.85;;;11.40;95.50;;;;;;5028743;28;20028;-73
2022/12/22 08:54:07;;;;;;;51.60;28.58;;;11.40;95.50;;;;;;5026248;28;20032;-74
2022/12/22 08:56:34;;;;;;;49.30;29.73;;;11.30;95.50;;;;;;5024579;28;20187;-72
2022/12/22 08:59:04;;;;;;;49.45;28.70;;;11.30;95.50;;;;;;5045923;28;20020;-73
2022/12/22 09:01:34;;;;;;;50.53;28.30;;;11.30;95.50;;;;;;5045189;28;20074;-73
2022/12/22 09:04:01;;;;;;;47.95;27.45;;;11.30;95.50;;;;;;5037440;28;20040;-74
2022/12/22 09:06:28;;;;;;;43.40;24.20;;;11.20;95.50;;;;;;5045617;28;20030;-74
2022/12/22 09:09:00;;;;;;;50.17;26.75;;;11.10;95.60;;;;;;5047706;28;20021;-74
2022/12/22 09:11:27;;;;;;;44.97;24.92;;;11.10;95.70;;;;;;5038835;28;20048;-75
2022/12/22 09:13:54;;;;;;;49.67;26.52;;;11.00;96.00;;;;;;5048008;28;20071;-74
2022/12/22 09:16:22;;;;;;;53.38;29.27;;;11.10;95.80;;;;;;5043839;28;20099;-74
2022/12/22 09:18:48;;;;;;;51.45;26.05;;;11.00;95.80;;;;;;5048545;28;20060;-73
2022/12/22 09:21:14;;;;;;;53.63;26.48;;;11.10;95.80;;;;;;5040490;28;20557;-74
2022/12/22 09:23:40;;;;;;;48.30;24.42;;;11.00;95.80;;;;;;5047882;28;20024;-73
2022/12/22 09:26:14;;;;;;;55.67;27.70;;;10.90;95.80;;;;;;5039726;28;20674;-73
2022/12/22 09:28:42;;;;;;;40.75;21.25;;;10.90;95.90;;;;;;5030018;28;20063;-73
2022/12/22 09:31:11;;;;;;;56.58;27.88;;;11.00;95.90;;;;;;5051329;28;20202;-74
2022/12/22 09:33:36;;;;;;;56.05;27.50;;;10.90;95.80;;;;;;5050474;28;20036;-75
2022/12/22 09:36:11;;;;;;;48.85;26.20;;;11.00;95.90;;;;;;5046330;28;20793;-75
2022/12/22 09:38:38;;;;;;;43.28;22.98;;;11.10;96.40;;;;;;5025903;28;20094;-73
2022/12/22 09:41:20;;;;;;;45.40;25.83;;;11.50;96.40;;;;;;5039396;28;20175;-73
2022/12/22 09:43:46;;;;;;;34.00;19.85;;;12.00;95.20;;;;;;5032415;28;20121;-73
2022/12/22 09:46:23;;;;;;;32.65;19.35;;;12.70;94.00;;;;;;5028373;28;20422;-73
2022/12/22 09:48:49;;;;;;;27.33;16.65;;;13.50;92.00;;;;;;5046457;28;20025;-73
2022/12/22 09:51:16;;;;;;;27.48;17.42;;;14.00;90.70;;;;;;5043261;28;20029;-73
2022/12/22 09:53:45;;;;;;;30.20;16.58;;;14.20;89.20;;;;;;5047825;28;20081;-73
2022/12/22 09:56:15;;;;;;;29.52;17.55;;;13.90;88.50;;;;;;5045203;28;20659;-73
2022/12/22 09:58:42;;;;;;;27.35;15.50;;;13.60;88.90;;;;;;5046248;28;20044;-73
2022/12/22 10:01:27;;;;;;;24.88;16.70;;;13.40;90.00;;;;;;5046184;28;20036;-73
2022/12/22 10:04:21;;;;;;;28.75;17.52;;;13.20;90.10;;;;;;5034264;28;20053;-73
2022/12/22 10:07:00;;;;;;;32.92;19.00;;;13.00;90.20;;;;;;5045021;28;20029;-74
2022/12/22 10:09:29;;;;;;;35.70;19.92;;;12.80;90.80;;;;;;5038518;28;20118;-73
2022/12/22 10:11:58;;;;;;;35.35;18.80;;;12.80;90.40;;;;;;5036286;28;20023;-73
2022/12/22 10:14:33;;;;;;;28.58;15.43;;;12.60;90.10;;;;;;5036052;28;20030;-73
2022/12/22 10:17:30;;;;;;;31.42;17.38;;;12.40;90.30;;;;;;5023978;28;20052;-73
2022/12/22 10:20:28;;;;;;;31.00;15.55;;;12.10;90.40;;;;;;5041614;28;20025;-74
2022/12/22 10:22:57;;;;;;;35.78;17.77;;;11.90;91.00;;;;;;5026691;28;20033;-73
2022/12/22 10:25:29;;;;;;;29.35;14.70;;;11.70;91.10;;;;;;5046720;28;20079;-73
2022/12/22 10:27:57;;;;;;;28.08;14.43;;;11.60;91.80;;;;;;5027004;28;20387;-73
2022/12/22 10:30:37;;;;;;;31.67;17.55;;;11.60;92.10;;;;;;5047360;28;20021;-73
2022/12/22 10:33:06;;;;;;;34.97;16.05;;;11.50;91.70;;;;;;5040758;28;20059;-74
2022/12/22 10:35:52;;;;;;;26.70;14.02;;;11.50;91.70;;;;;;5044061;28;20025;-74
2022/12/22 10:38:26;;;;;;;29.55;14.95;;;11.40;91.70;;;;;;5038571;28;20040;-74
2022/12/22 10:40:55;;;;;;;29.33;15.48;;;11.30;91.80;;;;;;5036897;28;20108;-75
2022/12/22 10:43:27;;;;;;;27.07;14.37;;;11.20;92.20;;;;;;5035954;28;20035;-74
2022/12/22 10:45:55;;;;;;;34.10;15.80;;;11.10;92.60;;;;;;5025679;28;20362;-74
2022/12/22 10:48:34;;;;;;;25.35;13.23;;;11.00;92.60;;;;;;5029221;28;20048;-74
2022/12/22 10:51:01;;;;;;;30.40;16.23;;;10.90;93.10;;;;;;5046466;28;20021;-75
2022/12/22 10:53:49;;;;;;;18.95;9.38;;;10.70;93.20;;;;;;5046318;28;20023;-74
2022/12/22 10:56:29;;;;;;;30.70;15.15;;;10.60;93.70;;;;;;5047252;28;20029;-72
2022/12/22 10:59:03;;;;;;;;;;;10.60;93.60;;;;;;5040613;28;20050;-73
2022/12/22 11:01:34;;;;;;;26.92;13.85;;;10.50;93.60;;;;;;5039131;28;20387;-74
2022/12/22 11:04:26;;;;;;;28.27;15.35;;;10.50;93.80;;;;;;5040079;28;20029;-73
2022/12/22 11:06:53;;;;;;;21.80;12.75;;;10.40;93.80;;;;;;5043704;28;20072;-74
2022/12/22 11:09:20;;;;;;;26.33;13.25;;;10.40;93.80;;;;;;5037397;28;20062;-74
2022/12/22 11:11:46;;;;;;;24.58;13.70;;;10.40;93.90;;;;;;5040224;28;20033;-74
2022/12/22 11:14:20;;;;;;;26.33;14.23;;;10.40;93.90;;;;;;5040797;28;20099;-75
2022/12/22 11:16:51;;;;;;;27.95;15.00;;;10.30;94.10;;;;;;5040350;28;20578;-74
2022/12/22 11:19:23;;;;;;;22.67;14.20;;;10.30;94.30;;;;;;5040591;28;20053;-74
2022/12/22 11:22:02;;;;;;;27.67;15.15;;;10.30;94.60;;;;;;5041148;28;20450;-74
2022/12/22 11:24:31;;;;;;;32.67;16.45;;;10.40;94.70;;;;;;5041141;28;20029;-74
2022/12/22 11:27:05;;;;;;;23.17;13.95;;;10.40;94.80;;;;;;5041946;28;20024;-74
2022/12/22 11:30:04;;;;;;;29.88;16.45;;;10.40;95.00;;;;;;5030173;28;20029;-74
2022/12/22 11:32:39;;;;;;;27.85;15.93;;;10.50;95.00;;;;;;5039125;28;20029;-74
2022/12/22 11:35:31;;;;;;;28.73;15.32;;;10.60;95.00;;;;;;5038777;28;20072;-75
2022/12/22 11:38:03;;;;;;;36.42;19.40;;;10.60;95.00;;;;;;5040138;28;20033;-74
2022/12/22 11:40:37;;;;;;;29.90;16.08;;;10.70;95.20;;;;;;5042048;28;20033;-74
2022/12/22 11:43:45;;;;;;;34.47;18.90;;;10.80;94.80;;;;;;5042112;28;20021;-74
2022/12/22 11:46:15;;;;;;;35.67;21.70;;;10.80;94.60;;;;;;5039270;28;20029;-75
2022/12/22 11:48:49;;;;;;;29.80;16.73;;;10.80;94.40;;;;;;5021985;28;20301;-74
2022/12/22 11:51:44;;;;;;;29.02;17.88;;;10.70;94.20;;;;;;5037426;28;20484;-75
2022/12/22 11:54:42;;;;;;;42.15;23.20;;;10.60;94.30;;;;;;5037988;28;20036;-76
2022/12/22 11:57:32;;;;;;;37.88;21.42;;;10.60;94.20;;;;;;5011180;28;20374;-76
2022/12/22 12:00:13;;;;;;;46.30;25.40;;;10.60;94.30;;;;;;5038923;28;20049;-74
2022/12/22 12:03:06;;;;;;;33.83;19.70;;;10.70;94.40;;;;;;5040923;28;20033;-75
2022/12/22 12:05:56;;;;;;;34.33;20.48;;;10.70;94.50;;;;;;5038504;28;20521;-75
2022/12/22 12:08:42;;;;;;;41.97;22.95;;;10.70;94.50;;;;;;5038342;28;20032;-75
2022/12/22 12:11:46;;;;;;;44.78;24.75;;;10.80;94.60;;;;;;5040536;28;20044;-75
2022/12/22 12:14:26;;;;;;;38.00;23.17;;;10.90;95.00;;;;;;5039460;28;20112;-75
2022/12/22 12:17:04;;;;;;;37.70;24.13;;;11.20;95.40;;;;;;5039013;28;20088;-75
2022/12/22 12:19:38;;;;;;;40.92;23.73;;;11.50;94.50;;;;;;5034006;28;20498;-74
2022/12/22 12:22:07;;;;;;;36.58;22.27;;;11.60;93.80;;;;;;5037630;28;20021;-74
2022/12/22 12:24:52;;;;;;;33.72;19.95;;;11.70;93.70;;;;;;5036699;28;20029;-76
2022/12/22 12:27:40;;;;;;;43.60;26.02;;;11.60;93.70;;;;;;5036045;28;20526;-74
2022/12/22 12:30:11;;;;;;;37.28;21.15;;;11.60;93.70;;;;;;5039358;28;20033;-74
2022/12/22 12:32:47;;;;;;;32.42;20.63;;;11.50;93.80;;;;;;5037151;28;20034;-74
2022/12/22 12:35:19;;;;;;;31.25;19.13;;;11.50;94.00;;;;;;5029326;28;20415;-75
2022/12/22 12:37:49;;;;;;;35.90;20.92;;;11.50;94.10;;;;;;5038310;28;20539;-74
2022/12/22 12:40:20;;;;;;;;;;;11.50;94.20;;;;;;5024481;28;20021;-75
2022/12/22 12:42:47;;;;;;;30.02;16.58;;;11.50;94.20;;;;;;5045865;28;20385;-75
2022/12/22 12:45:33;;;;;;;26.17;16.10;;;11.40;94.10;;;;;;5048656;28;20025;-75
2022/12/22 12:48:21;;;;;;;26.10;15.38;;;11.30;94.20;;;;;;5045965;28;20028;-75
2022/12/22 12:50:51;;;;;;;26.42;15.68;;;11.30;94.10;;;;;;5036694;28;20070;-74
2022/12/22 12:53:24;;;;;;;26.00;15.40;;;11.20;94.30;;;;;;5038956;28;20018;-74
2022/12/22 12:55:53;;;;;;;21.70;13.18;;;11.20;94.30;;;;;;5039929;28;20494;-74
2022/12/22 12:58:49;;;;;;;20.73;12.73;;;11.10;94.40;;;;;;5040702;28;20116;-75
2022/12/22 13:01:17;;;;;;;23.13;14.00;;;11.00;94.40;;;;;;5018055;28;20034;-75
2022/12/22 13:03:43;;;;;;;28.42;13.98;;;10.90;94.20;;;;;;5043181;28;20453;-74
2022/12/22 13:06:30;;;;;;;18.17;10.57;;;10.90;94.00;;;;;;5049967;28;20029;-73
2022/12/22 13:09:01;;;;;;;21.40;11.60;;;10.90;94.10;;;;;;5045491;28;20036;-75
2022/12/22 13:11:33;;;;;;;22.10;11.07;;;10.80;93.40;;;;;;5036243;28;20055;-73
2022/12/22 13:13:59;;;;;;;21.30;10.75;;;10.70;93.50;;;;;;5048027;28;20023;-75
2022/12/22 13:16:27;;;;;;;18.58;10.23;;;10.80;93.60;;;;;;5020513;28;20049;-74
2022/12/22 13:18:57;;;;;;;17.05;10.15;;;10.90;93.40;;;;;;5025178;28;20026;-75
2022/12/22 13:21:37;;;;;;;24.30;14.07;;;10.90;92.90;;;;;;5030022;28;20079;-74
2022/12/22 13:24:22;;;;;;;22.17;14.63;;;10.80;92.50;;;;;;5023892;28;20022;-75
2022/12/22 13:26:51;;;;;;;25.05;12.88;;;10.80;92.20;;;;;;5030506;28;20032;-74
2022/12/22 13:29:16;;;;;;;20.80;13.13;;;10.70;92.30;;;;;;5031684;28;20056;-74
2022/12/22 13:31:45;;;;;;;27.38;16.55;;;10.70;92.30;;;;;;5030026;28;20060;-73
2022/12/22 13:34:49;;;;;;;23.67;15.40;;;10.70;92.40;;;;;;5022346;28;20062;-74
2022/12/22 13:37:17;;;;;;;25.38;15.55;;;10.70;92.60;;;;;;5020906;28;20053;-73
2022/12/22 13:40:04;;;;;;;31.25;18.75;;;10.60;92.90;;;;;;5019124;28;20080;-74
2022/12/22 13:42:33;;;;;;;28.60;17.85;;;10.50;92.90;;;;;;5030824;28;20036;-75
2022/12/22 13:45:00;;;;;;;30.75;19.75;;;10.50;93.10;;;;;;5022642;28;20025;-74
2022/12/22 13:47:26;;;;;;;34.25;20.13;;;10.50;93.20;;;;;;5029726;28;20028;-75
2022/12/22 13:49:52;;;;;;;35.78;21.27;;;10.50;93.40;;;;;;5028527;28;20083;-74
2022/12/22 13:52:20;;;;;;;33.35;20.90;;;10.50;93.50;;;;;;5029837;28;20112;-75
2022/12/22 13:54:46;;;;;;;36.92;22.75;;;10.50;93.70;;;;;;5027781;28;20024;-74
2022/12/22 13:57:19;;;;;;;31.95;20.88;;;10.50;93.70;;;;;;5020165;28;20145;-75
2022/12/22 13:59:48;;;;;;;37.10;24.23;;;10.50;93.80;;;;;;5026761;28;20783;-77
2022/12/22 14:02:18;;;;;;;41.72;25.25;;;10.50;93.80;;;;;;5027473;28;20056;-75
2022/12/22 14:05:02;;;;;;;36.45;23.33;;;10.50;93.80;;;;;;5024982;28;20041;-76
2022/12/22 14:07:28;;;;;;;35.15;21.75;;;10.50;93.90;;;;;;5021881;28;20022;-76
2022/12/22 14:09:56;;;;;;;44.50;27.63;;;10.50;93.80;;;;;;5016553;28;20137;-75
2022/12/22 14:12:30;;;;;;;39.35;25.38;;;10.60;93.90;;;;;;5028416;28;20018;-75
2022/12/22 14:15:00;;;;;;;40.58;24.63;;;10.60;93.80;;;;;;5028351;28;20060;-75
2022/12/22 14:17:39;;;;;;;35.33;22.23;;;10.60;93.80;;;;;;5037298;28;20052;-75
2022/12/22 14:20:26;;;;;;;28.88;18.25;;;10.70;93.80;;;;;;5043944;28;20132;-74
2022/12/22 14:22:57;;;;;;;40.97;24.92;;;10.70;93.90;;;;;;5049961;28;20134;-76
2022/12/22 14:25:36;;;;;;;36.60;23.60;;;10.80;94.00;;;;;;5033178;28;20032;-77
2022/12/22 14:28:05;;;;;;;20.25;12.18;;;10.80;93.80;;;;;;5052463;28;20036;-75
2022/12/22 14:30:37;;;;;;;43.25;26.65;;;10.90;93.90;;;;;;5034759;28;20560;-75
2022/12/22 14:33:26;;;;;;;41.42;27.27;;;10.90;93.80;;;;;;5039783;28;20029;-76
2022/12/22 14:36:22;;;;;;;41.60;28.97;;;10.90;93.70;;;;;;5048047;28;20071;-75
2022/12/22 14:38:53;;;;;;;46.55;29.38;;;10.80;93.60;;;;;;5050049;28;20136;-76
2022/12/22 14:41:40;;;;;;;41.92;28.67;;;10.80;93.60;;;;;;5046788;28;20035;-77
2022/12/22 14:44:31;;;;;;;41.20;25.08;;;10.70;93.80;;;;;;5039807;28;20026;-75
2022/12/22 14:47:19;;;;;;;43.97;29.50;;;10.70;93.80;;;;;;5028844;28;20586;-74
2022/12/22 14:50:12;;;;;;;47.33;31.33;;;10.80;93.80;;;;;;5049651;28;20028;-74
2022/12/22 14:52:45;;;;;;;47.55;30.85;;;10.80;93.70;;;;;;5049452;28;20032;-75
2022/12/22 14:55:41;;;;;;;40.42;28.13;;;10.80;93.70;;;;;;5052264;28;20033;-76
2022/12/22 14:58:13;;;;;;;40.95;27.40;;;10.90;93.70;;;;;;5026450;28;20041;-77
2022/12/22 15:00:42;;;;;;;45.38;29.67;;;10.90;93.60;;;;;;5045409;28;20431;-75
2022/12/22 15:03:32;;;;;;;38.65;25.38;;;11.00;93.60;;;;;;5045858;28;20025;-75
2022/12/22 15:06:31;;;;;;;43.67;26.93;;;11.00;93.60;;;;;;5052485;28;20446;-75
2022/12/22 15:09:10;;;;;;;48.70;33.17;;;11.00;93.60;;;;;;5052774;28;20280;-76
2022/12/22 15:11:40;;;;;;;42.55;30.15;;;11.00;93.50;;;;;;5048541;28;20029;-76
2022/12/22 15:14:19;;;;;;;41.13;27.83;;;11.10;93.50;;;;;;5049849;28;20033;-75
2022/12/22 15:16:46;;;;;;;38.10;26.05;;;11.10;93.50;;;;;;5048154;28;20420;-76
2022/12/22 15:19:17;;;;;;;45.45;28.75;;;11.10;93.40;;;;;;5052142;28;20029;-74
2022/12/22 15:21:43;;;;;;;43.60;28.95;;;11.10;93.40;;;;;;5032934;28;20079;-74
2022/12/22 15:24:14;;;;;;;45.60;28.52;;;11.10;93.40;;;;;;5051188;28;20021;-75
2022/12/22 15:26:41;;;;;;;44.22;30.38;;;11.10;93.50;;;;;;5048341;28;20033;-76
2022/12/22 15:29:07;;;;;;;45.65;26.88;;;11.00;93.50;;;;;;5044927;28;20029;-75
2022/12/22 15:31:33;;;;;;;51.22;33.22;;;11.00;93.60;;;;;;5049346;28;20071;-75
2022/12/22 15:34:01;;;;;;;39.58;27.73;;;11.00;93.50;;;;;;5046336;28;20021;-76
2022/12/22 15:36:27;;;;;;;40.42;29.50;;;11.00;93.60;;;;;;5051379;28;20021;-75
2022/12/22 15:38:53;;;;;;;39.38;27.33;;;11.00;93.60;;;;;;5049626;28;20021;-76
2022/12/22 15:41:18;;;;;;;47.47;33.67;;;11.00;93.60;;;;;;5033782;28;20114;-76
2022/12/22 15:43:44;;;;;;;37.83;26.42;;;11.00;93.60;;;;;;5027284;28;20029;-75
2022/12/22 15:46:14;;;;;;;42.83;28.85;;;11.00;93.60;;;;;;5040177;28;20057;-76
2022/12/22 15:48:40;;;;;;;;;;;10.90;93.70;;;;;;5044940;28;20079;-75
2022/12/22 15:51:15;;;;;;;42.30;28.75;;;10.90;93.80;;;;;;5033937;28;19909;-76
2022/12/22 15:53:41;;;;;;;43.88;29.98;;;10.90;93.80;;;;;;5030041;28;20029;-75
2022/12/22 15:56:14;;;;;;;44.78;30.55;;;11.00;93.80;;;;;;5049150;28;20112;-76
2022/12/22 15:58:40;;;;;;;46.20;31.55;;;11.00;93.90;;;;;;5046252;28;20048;-75
2022/12/22 16:01:10;;;;;;;40.30;28.55;;;11.00;93.80;;;;;;5031568;28;20037;-76
2022/12/22 16:03:36;;;;;;;49.22;34.60;;;11.00;93.90;;;;;;5043402;28;20030;-75
2022/12/22 16:06:02;;;;;;;47.70;30.77;;;11.00;93.90;;;;;;5046705;28;20089;-75
2022/12/22 16:08:31;;;;;;;42.35;29.02;;;11.00;93.90;;;;;;5050136;28;20064;-76
2022/12/22 16:10:57;;;;;;;48.63;33.28;;;11.00;94.00;;;;;;5056077;28;20087;-75
2022/12/22 16:13:25;;;;;;;52.90;31.52;;;10.90;94.00;;;;;;5031007;28;20132;-76
2022/12/22 16:15:52;;;;;;;34.80;22.38;;;10.90;94.20;;;;;;5043725;28;20052;-75
2022/12/22 16:18:17;;;;;;;38.38;27.13;;;10.90;94.20;;;;;;5032117;28;20453;-75
2022/12/22 16:20:43;;;;;;;32.28;21.98;;;10.80;94.40;;;;;;5045438;28;20033;-75
2022/12/22 16:23:15;;;;;;;44.08;28.65;;;10.80;94.50;;;;;;5051696;28;20025;-75